Time;durP1;ratioP1;P1;durP2;ratioP2;P2;SDS_P1;SDS_P2;PMS_P1;PMS_P2;Temp;Humidity;BMP_temperature;BMP_pressure;BME280_temperature;BME280_humidity;BME280_pressure;Samples;Min_cycle;Max_cycle;Signal;HPM_P1;HPM_P2
2023/12/14 00:01:34;;;;;;;6.93;6.00;;;;;;;;;;5074917;28;20443;-80
2023/12/14 00:04:04;;;;;;;7.47;6.20;;;;;;;;;;5074680;28;20555;-82
2023/12/14 00:06:31;;;;;;;7.03;6.33;;;;;;;;;;5074128;28;20451;-83
2023/12/14 00:08:58;;;;;;;5.87;5.30;;;;;;;;;;5074411;28;20471;-80
2023/12/14 00:11:25;;;;;;;6.67;5.30;;;;;;;;;;5074050;28;20447;-80
2023/12/14 00:13:52;;;;;;;6.03;5.27;;;;;;;;;;5074449;28;20546;-80
2023/12/14 00:16:18;;;;;;;9.00;6.40;;;;;;;;;;5075096;28;20445;-80
2023/12/14 00:18:45;;;;;;;6.87;5.90;;;;;;;;;;5074198;28;20553;-80
2023/12/14 00:21:14;;;;;;;8.03;6.10;;;;;;;;;;5073486;28;20478;-80
2023/12/14 00:23:41;;;;;;;6.73;6.13;;;;;;;;;;5073919;28;20553;-82
2023/12/14 00:26:09;;;;;;;7.13;5.70;;;;;;;;;;5074698;28;20872;-80
2023/12/14 00:28:36;;;;;;;7.57;5.40;;;;;;;;;;5074012;28;20477;-81
2023/12/14 00:31:02;;;;;;;8.20;6.10;;;;;;;;;;5074708;28;20445;-80
2023/12/14 00:33:28;;;;;;;6.70;5.50;;;;;;;;;;5074196;28;21043;-81
2023/12/14 00:35:55;;;;;;;6.10;5.00;;;;;;;;;;5074621;28;20459;-80
2023/12/14 00:38:21;;;;;;;7.40;5.60;;;;;;;;;;5074000;28;21018;-80
2023/12/14 00:40:48;;;;;;;6.50;5.13;;;;;;;;;;5074489;28;20475;-80
2023/12/14 00:43:17;;;;;;;7.00;5.47;;;;;;;;;;5073368;28;20500;-80
2023/12/14 00:45:43;;;;;;;8.33;6.47;;;;;;;;;;5073597;28;20987;-80
2023/12/14 00:48:11;;;;;;;9.10;5.83;;;;;;;;;;5073355;28;20470;-80
2023/12/14 00:50:38;;;;;;;7.87;5.70;;;;;;;;;;5073670;28;20441;-80
2023/12/14 00:53:04;;;;;;;8.50;5.67;;;;;;;;;;5073171;28;21035;-82
2023/12/14 00:55:31;;;;;;;7.30;4.87;;;;;;;;;;5073631;28;20481;-81
2023/12/14 00:57:58;;;;;;;11.37;6.00;;;;;;;;;;5072998;28;20475;-82
2023/12/14 01:00:26;;;;;;;10.90;5.80;;;;;;;;;;5073887;28;20505;-80
2023/12/14 01:02:53;;;;;;;8.73;6.60;;;;;;;;;;5073014;28;20479;-82
2023/12/14 01:05:19;;;;;;;8.53;5.20;;;;;;;;;;5073166;28;20463;-82
2023/12/14 01:07:46;;;;;;;8.97;5.57;;;;;;;;;;5071719;28;20485;-82
2023/12/14 01:10:12;;;;;;;8.30;5.67;;;;;;;;;;5073406;28;20467;-81
2023/12/14 01:12:39;;;;;;;8.70;4.90;;;;;;;;;;5073393;28;20471;-82
2023/12/14 01:15:07;;;;;;;7.83;5.67;;;;;;;;;;5071991;28;20455;-82
2023/12/14 01:17:37;;;;;;;11.03;5.40;;;;;;;;;;5073162;28;20505;-82
2023/12/14 01:20:04;;;;;;;8.40;5.03;;;;;;;;;;5072329;28;20500;-81
2023/12/14 01:22:31;;;;;;;8.70;5.57;;;;;;;;;;5072967;28;20561;-82
2023/12/14 01:24:57;;;;;;;7.53;5.40;;;;;;;;;;5072910;28;20459;-82
2023/12/14 01:27:24;;;;;;;6.20;5.00;;;;;;;;;;5073105;28;20467;-81
2023/12/14 01:29:50;;;;;;;8.70;5.97;;;;;;;;;;5073360;28;20437;-81
2023/12/14 01:32:17;;;;;;;9.13;5.63;;;;;;;;;;5073042;28;20467;-81
2023/12/14 01:34:45;;;;;;;8.10;5.00;;;;;;;;;;5071896;28;20462;-82
2023/12/14 01:37:11;;;;;;;7.20;4.97;;;;;;;;;;5073547;28;20553;-82
2023/12/14 01:39:39;;;;;;;8.50;4.77;;;;;;;;;;5073431;28;20431;-82
2023/12/14 01:42:06;;;;;;;9.40;6.20;;;;;;;;;;5072682;28;20459;-82
2023/12/14 01:44:33;;;;;;;9.17;4.60;;;;;;;;;;5073184;28;20455;-81
2023/12/14 01:46:59;;;;;;;7.80;5.27;;;;;;;;;;5072830;28;20538;-82
2023/12/14 01:49:26;;;;;;;8.03;4.67;;;;;;;;;;5073321;28;20441;-82
2023/12/14 01:51:54;;;;;;;6.33;4.03;;;;;;;;;;5072606;28;20940;-81
2023/12/14 01:54:20;;;;;;;7.60;5.60;;;;;;;;;;5072741;28;20554;-82
2023/12/14 01:56:47;;;;;;;10.50;5.10;;;;;;;;;;5072428;28;20822;-82
2023/12/14 01:59:14;;;;;;;7.57;4.20;;;;;;;;;;5072659;28;20439;-82
2023/12/14 02:01:43;;;;;;;12.07;5.10;;;;;;;;;;5072612;28;20482;-81
2023/12/14 02:04:09;;;;;;;7.93;5.07;;;;;;;;;;5072582;28;20478;-82
2023/12/14 02:06:36;;;;;;;8.30;4.80;;;;;;;;;;5072544;28;20431;-80
2023/12/14 02:09:04;;;;;;;9.90;5.47;;;;;;;;;;5073169;28;20439;-81
2023/12/14 02:11:31;;;;;;;9.97;5.23;;;;;;;;;;5071964;28;20518;-80
2023/12/14 02:13:57;;;;;;;8.53;5.17;;;;;;;;;;5072853;28;20475;-80
2023/12/14 02:16:24;;;;;;;8.40;6.20;;;;;;;;;;5073341;28;20442;-83
2023/12/14 02:18:51;;;;;;;6.17;4.23;;;;;;;;;;5076407;28;20475;-81
2023/12/14 02:21:18;;;;;;;7.40;5.33;;;;;;;;;;5077314;28;20437;-83
2023/12/14 02:23:46;;;;;;;7.70;4.27;;;;;;;;;;5076047;28;20475;-83
2023/12/14 02:26:13;;;;;;;12.73;4.83;;;;;;;;;;5076566;28;20959;-81
2023/12/14 02:28:38;;;;;;;11.00;5.43;;;;;;;;;;5075179;28;20481;-83
2023/12/14 02:31:06;;;;;;;10.10;5.80;;;;;;;;;;5076045;28;20893;-82
2023/12/14 02:33:33;;;;;;;10.07;4.87;;;;;;;;;;5075968;28;20228;-81
2023/12/14 02:36:00;;;;;;;8.40;5.70;;;;;;;;;;5076429;28;20542;-82
2023/12/14 02:38:26;;;;;;;11.40;6.17;;;;;;;;;;5075551;28;21023;-82
2023/12/14 02:40:54;;;;;;;10.20;5.40;;;;;;;;;;5076048;28;20449;-81
2023/12/14 02:43:21;;;;;;;9.37;5.80;;;;;;;;;;5075241;28;20479;-82
2023/12/14 02:45:47;;;;;;;9.30;6.10;;;;;;;;;;5075920;28;20976;-83
2023/12/14 02:48:14;;;;;;;8.73;5.40;;;;;;;;;;5075401;28;20471;-82
2023/12/14 02:50:40;;;;;;;10.53;6.47;;;;;;;;;;5076064;28;20876;-81
2023/12/14 02:53:08;;;;;;;9.60;5.20;;;;;;;;;;5074920;28;20470;-82
2023/12/14 02:55:35;;;;;;;8.47;6.40;;;;;;;;;;5075872;28;20834;-82
2023/12/14 02:58:03;;;;;;;10.77;6.10;;;;;;;;;;5075344;28;20477;-82
2023/12/14 03:00:29;;;;;;;9.93;6.23;;;;;;;;;;5075825;28;20439;-82
2023/12/14 03:02:56;;;;;;;11.57;5.77;;;;;;;;;;5075328;28;20513;-83
2023/12/14 03:05:23;;;;;;;11.57;6.43;;;;;;;;;;5075744;28;20463;-82
2023/12/14 03:07:50;;;;;;;8.67;6.10;;;;;;;;;;5075060;28;20471;-80
2023/12/14 03:10:17;;;;;;;11.97;5.53;;;;;;;;;;5075282;28;20925;-80
2023/12/14 03:12:43;;;;;;;13.90;6.70;;;;;;;;;;5073810;28;20473;-81
2023/12/14 03:15:12;;;;;;;10.33;5.93;;;;;;;;;;5075567;28;20455;-80
2023/12/14 03:17:38;;;;;;;10.30;6.50;;;;;;;;;;5074965;28;20534;-81
2023/12/14 03:20:06;;;;;;;8.47;6.23;;;;;;;;;;5075063;28;20430;-80
2023/12/14 03:22:32;;;;;;;14.17;7.50;;;;;;;;;;5073655;28;20474;-82
2023/12/14 03:24:59;;;;;;;11.73;6.83;;;;;;;;;;5073554;28;20466;-82
2023/12/14 03:27:25;;;;;;;11.37;6.20;;;;;;;;;;5074628;28;20557;-81
2023/12/14 03:29:52;;;;;;;13.57;6.67;;;;;;;;;;5075080;28;20442;-82
2023/12/14 03:32:20;;;;;;;12.43;6.77;;;;;;;;;;5074366;28;20914;-82
2023/12/14 03:34:46;;;;;;;11.97;6.23;;;;;;;;;;5074887;28;20473;-82
2023/12/14 03:37:13;;;;;;;10.50;6.93;;;;;;;;;;5074501;28;20467;-82
2023/12/14 03:39:39;;;;;;;13.70;7.30;;;;;;;;;;5075040;28;20434;-82
2023/12/14 03:42:06;;;;;;;10.03;6.60;;;;;;;;;;5073309;28;20459;-81
2023/12/14 03:44:32;;;;;;;8.90;5.57;;;;;;;;;;5074850;28;20482;-82
2023/12/14 03:47:00;;;;;;;17.30;7.37;;;;;;;;;;5074666;28;20455;-82
2023/12/14 03:49:28;;;;;;;12.00;6.73;;;;;;;;;;5074896;28;20443;-82
2023/12/14 03:51:55;;;;;;;8.77;6.30;;;;;;;;;;5074116;28;20893;-81
2023/12/14 03:54:21;;;;;;;14.03;6.93;;;;;;;;;;5073266;28;20464;-81
2023/12/14 03:56:49;;;;;;;13.63;7.03;;;;;;;;;;5073732;28;20943;-81
2023/12/14 03:59:16;;;;;;;12.00;6.03;;;;;;;;;;5074224;28;20817;-81
2023/12/14 04:01:42;;;;;;;11.60;7.37;;;;;;;;;;5073614;28;20821;-82
2023/12/14 04:04:09;;;;;;;14.10;6.30;;;;;;;;;;5074300;28;20482;-81
2023/12/14 04:06:36;;;;;;;9.07;7.10;;;;;;;;;;5074464;28;20431;-81
2023/12/14 04:09:03;;;;;;;10.00;6.60;;;;;;;;;;5074344;28;20455;-83
2023/12/14 04:11:29;;;;;;;9.50;6.00;;;;;;;;;;5074035;28;20469;-81
2023/12/14 04:13:56;;;;;;;11.10;7.17;;;;;;;;;;5073472;28;20471;-82
2023/12/14 04:16:23;;;;;;;9.13;5.60;;;;;;;;;;5074392;28;20446;-81
2023/12/14 04:18:49;;;;;;;13.67;6.40;;;;;;;;;;5073740;28;20921;-81
2023/12/14 04:21:16;;;;;;;12.23;6.63;;;;;;;;;;5074181;28;20522;-83
2023/12/14 04:23:45;;;;;;;10.37;5.97;;;;;;;;;;5073784;28;20833;-80
2023/12/14 04:26:14;;;;;;;10.27;6.33;;;;;;;;;;5074028;28;20438;-80
2023/12/14 04:28:40;;;;;;;10.53;6.97;;;;;;;;;;5073535;28;20505;-80
2023/12/14 04:31:08;;;;;;;11.47;6.20;;;;;;;;;;5074068;28;20948;-80
2023/12/14 04:33:35;;;;;;;11.27;7.27;;;;;;;;;;5073736;28;20466;-80
2023/12/14 04:36:01;;;;;;;12.03;6.73;;;;;;;;;;5073561;28;20459;-80
2023/12/14 04:38:28;;;;;;;11.80;7.57;;;;;;;;;;5073597;28;20482;-82
2023/12/14 04:40:56;;;;;;;12.67;6.20;;;;;;;;;;5073120;28;20483;-81
2023/12/14 04:43:22;;;;;;;10.00;6.50;;;;;;;;;;5073170;28;20566;-82
2023/12/14 04:45:49;;;;;;;14.30;7.30;;;;;;;;;;5073463;28;20808;-82
2023/12/14 04:48:15;;;;;;;9.43;6.30;;;;;;;;;;5071841;28;20557;-81
2023/12/14 04:50:42;;;;;;;13.47;6.97;;;;;;;;;;5073402;28;20435;-81
2023/12/14 04:53:08;;;;;;;11.60;6.70;;;;;;;;;;5071612;28;20466;-82
2023/12/14 04:55:34;;;;;;;13.67;8.20;;;;;;;;;;5073427;28;20463;-81
2023/12/14 04:58:02;;;;;;;9.93;7.27;;;;;;;;;;5073194;28;20478;-82
2023/12/14 05:00:29;;;;;;;11.60;8.20;;;;;;;;;;5073648;28;20445;-82
2023/12/14 05:02:56;;;;;;;15.50;7.80;;;;;;;;;;5071661;28;20545;-82
2023/12/14 05:05:23;;;;;;;10.67;6.70;;;;;;;;;;5073026;28;21015;-82
2023/12/14 05:07:51;;;;;;;13.40;8.37;;;;;;;;;;5073067;28;20463;-81
2023/12/14 05:10:17;;;;;;;14.00;8.20;;;;;;;;;;5072693;28;20470;-82
2023/12/14 05:12:44;;;;;;;12.93;8.30;;;;;;;;;;5073061;28;20550;-82
2023/12/14 05:15:13;;;;;;;12.97;8.20;;;;;;;;;;5071957;28;20467;-82
2023/12/14 05:17:40;;;;;;;12.47;7.47;;;;;;;;;;5072508;28;20845;-82
2023/12/14 05:20:08;;;;;;;14.97;8.47;;;;;;;;;;5073156;28;20937;-82
2023/12/14 05:22:35;;;;;;;15.03;9.17;;;;;;;;;;5072488;28;21024;-81
2023/12/14 05:25:01;;;;;;;13.53;6.90;;;;;;;;;;5072478;28;20486;-82
2023/12/14 05:27:28;;;;;;;12.80;7.97;;;;;;;;;;5073000;28;20549;-81
2023/12/14 05:29:54;;;;;;;15.20;8.73;;;;;;;;;;5073483;28;20498;-82
2023/12/14 05:32:22;;;;;;;14.80;8.80;;;;;;;;;;5072686;28;20841;-82
2023/12/14 05:34:49;;;;;;;15.70;8.70;;;;;;;;;;5072992;28;20551;-82
2023/12/14 05:37:16;;;;;;;13.20;8.00;;;;;;;;;;5072567;28;20501;-82
2023/12/14 05:39:43;;;;;;;17.57;9.13;;;;;;;;;;5072941;28;20956;-81
2023/12/14 05:42:09;;;;;;;14.50;8.67;;;;;;;;;;5072902;28;20466;-80
2023/12/14 05:44:36;;;;;;;11.40;7.80;;;;;;;;;;5073040;28;20489;-80
2023/12/14 05:47:03;;;;;;;15.30;8.67;;;;;;;;;;5071548;28;20807;-81
2023/12/14 05:49:31;;;;;;;15.13;8.63;;;;;;;;;;5072278;28;20534;-80
2023/12/14 05:51:59;;;;;;;16.23;8.20;;;;;;;;;;5073673;28;20541;-79
2023/12/14 05:54:26;;;;;;;14.27;8.93;;;;;;;;;;5076943;28;20546;-80
2023/12/14 05:56:54;;;;;;;15.93;9.73;;;;;;;;;;5076583;28;20435;-80
2023/12/14 05:59:21;;;;;;;13.17;8.63;;;;;;;;;;5077374;28;20474;-80
2023/12/14 06:01:47;;;;;;;16.23;8.40;;;;;;;;;;5075561;28;20815;-79
2023/12/14 06:04:14;;;;;;;15.20;9.50;;;;;;;;;;5076860;28;20483;-81
2023/12/14 06:06:42;;;;;;;14.50;9.37;;;;;;;;;;5076250;28;20437;-82
2023/12/14 06:09:08;;;;;;;17.17;9.80;;;;;;;;;;5077706;28;20442;-81
2023/12/14 06:11:36;;;;;;;20.10;9.53;;;;;;;;;;5076844;28;20438;-80
2023/12/14 06:14:02;;;;;;;18.53;10.67;;;;;;;;;;5076589;28;20537;-80
2023/12/14 06:16:29;;;;;;;18.33;10.70;;;;;;;;;;5076623;28;20435;-81
2023/12/14 06:18:55;;;;;;;19.10;10.93;;;;;;;;;;5074585;28;20485;-82
2023/12/14 06:21:22;;;;;;;16.23;9.63;;;;;;;;;;5076202;28;21027;-81
2023/12/14 06:23:50;;;;;;;20.83;11.17;;;;;;;;;;5075769;28;20486;-80
2023/12/14 06:26:17;;;;;;;18.63;11.00;;;;;;;;;;5076652;28;20929;-79
2023/12/14 06:28:43;;;;;;;18.00;11.03;;;;;;;;;;5074314;28;20471;-80
2023/12/14 06:31:13;;;;;;;18.33;11.60;;;;;;;;;;5075349;28;20929;-80
2023/12/14 06:33:39;;;;;;;26.00;13.10;;;;;;;;;;5076280;28;20474;-80
2023/12/14 06:36:08;;;;;;;17.50;10.73;;;;;;;;;;5075890;28;20951;-80
2023/12/14 06:38:34;;;;;;;21.60;12.37;;;;;;;;;;5076151;28;20996;-80
2023/12/14 06:41:02;;;;;;;18.37;12.53;;;;;;;;;;5076834;28;20430;-80
2023/12/14 06:43:29;;;;;;;27.93;12.57;;;;;;;;;;5075482;28;20483;-80
2023/12/14 06:45:55;;;;;;;18.40;11.80;;;;;;;;;;5076188;28;20485;-80
2023/12/14 06:48:22;;;;;;;30.53;14.50;;;;;;;;;;5078485;28;21082;-80
2023/12/14 06:50:49;;;;;;;21.60;13.37;;;;;;;;;;5075993;28;20453;-80
2023/12/14 06:53:15;;;;;;;18.50;12.17;;;;;;;;;;5075910;28;20469;-80
2023/12/14 06:55:42;;;;;;;23.60;13.57;;;;;;;;;;5076218;28;20459;-80
2023/12/14 06:58:11;;;;;;;26.00;14.53;;;;;;;;;;5074697;28;20482;-80
2023/12/14 07:00:38;;;;;;;29.67;15.00;;;;;;;;;;5076525;28;20443;-80
2023/12/14 07:03:04;;;;;;;23.93;13.40;;;;;;;;;;5074916;28;20473;-80
2023/12/14 07:05:32;;;;;;;24.93;13.70;;;;;;;;;;5075348;28;20490;-79
2023/12/14 07:07:58;;;;;;;26.93;14.07;;;;;;;;;;5075238;28;20470;-80
2023/12/14 07:10:25;;;;;;;22.30;14.80;;;;;;;;;;5075926;28;20895;-80
2023/12/14 07:12:52;;;;;;;27.53;14.90;;;;;;;;;;5074311;28;20470;-79
2023/12/14 07:15:20;;;;;;;24.57;14.17;;;;;;;;;;5075936;28;20462;-80
2023/12/14 07:17:46;;;;;;;22.60;13.83;;;;;;;;;;5075494;28;20557;-80
2023/12/14 07:20:13;;;;;;;24.57;14.87;;;;;;;;;;5076079;28;20449;-80
2023/12/14 07:22:39;;;;;;;23.80;15.50;;;;;;;;;;5075574;28;20463;-80
2023/12/14 07:25:05;;;;;;;24.80;15.43;;;;;;;;;;5075687;28;20856;-80
2023/12/14 07:27:32;;;;;;;24.93;13.53;;;;;;;;;;5075483;28;20467;-79
2023/12/14 07:30:00;;;;;;;26.77;14.30;;;;;;;;;;5075857;28;20443;-79
2023/12/14 07:32:28;;;;;;;27.27;14.97;;;;;;;;;;5075254;28;20466;-80
2023/12/14 07:34:54;;;;;;;28.80;13.00;;;;;;;;;;5075275;28;20810;-80
2023/12/14 07:37:21;;;;;;;24.07;13.67;;;;;;;;;;5075053;28;20469;-80
2023/12/14 07:39:47;;;;;;;24.13;12.80;;;;;;;;;;5075669;28;20443;-80
2023/12/14 07:42:19;;;;;;;20.43;12.47;;;;;;;;;;5073972;28;20466;-80
2023/12/14 07:44:47;;;;;;;21.87;14.00;;;;;;;;;;5074813;28;20479;-80
2023/12/14 07:47:15;;;;;;;29.10;15.97;;;;;;;;;;5075047;28;20458;-80
2023/12/14 07:49:43;;;;;;;23.77;15.63;;;;;;;;;;5075382;28;20445;-80
2023/12/14 07:52:09;;;;;;;24.87;15.47;;;;;;;;;;5074831;28;20550;-80
2023/12/14 07:54:36;;;;;;;21.87;13.80;;;;;;;;;;5074968;28;20454;-80
2023/12/14 07:57:03;;;;;;;25.50;16.77;;;;;;;;;;5073448;28;20459;-80
2023/12/14 07:59:30;;;;;;;20.17;13.40;;;;;;;;;;5073928;28;20451;-80
2023/12/14 08:01:56;;;;;;;28.17;15.20;;;;;;;;;;5074703;28;20459;-79
2023/12/14 08:04:23;;;;;;;21.47;12.30;;;;;;;;;;5074489;28;20489;-80
2023/12/14 08:06:50;;;;;;;34.50;15.20;;;;;;;;;;5074359;28;20452;-80
2023/12/14 08:09:16;;;;;;;22.73;12.80;;;;;;;;;;5073038;28;20447;-80
2023/12/14 08:11:44;;;;;;;21.50;14.27;;;;;;;;;;5074396;28;20446;-80
2023/12/14 08:14:10;;;;;;;21.90;13.20;;;;;;;;;;5073923;28;20534;-80
2023/12/14 08:16:37;;;;;;;29.10;15.03;;;;;;;;;;5074430;28;20443;-80
2023/12/14 08:19:03;;;;;;;25.53;13.20;;;;;;;;;;5074454;28;20530;-79
2023/12/14 08:21:30;;;;;;;23.17;13.70;;;;;;;;;;5074510;28;21015;-80
2023/12/14 08:23:58;;;;;;;31.57;14.13;;;;;;;;;;5073601;28;20471;-80
2023/12/14 08:26:25;;;;;;;24.27;13.30;;;;;;;;;;5074046;28;20836;-81
2023/12/14 08:28:51;;;;;;;24.70;13.73;;;;;;;;;;5074444;28;20454;-80
2023/12/14 08:31:18;;;;;;;23.83;12.80;;;;;;;;;;5074640;28;20518;-80
2023/12/14 08:33:44;;;;;;;21.97;13.90;;;;;;;;;;5073171;28;20890;-80
2023/12/14 08:36:10;;;;;;;19.97;12.57;;;;;;;;;;5072434;28;20441;-80
2023/12/14 08:38:37;;;;;;;25.40;13.93;;;;;;;;;;5073129;28;20473;-79
2023/12/14 08:41:07;;;;;;;25.60;14.63;;;;;;;;;;5073932;28;20526;-80
2023/12/14 08:43:34;;;;;;;19.73;13.20;;;;;;;;;;5072941;28;20471;-80
2023/12/14 08:46:00;;;;;;;22.10;13.10;;;;;;;;;;5073530;28;20491;-80
2023/12/14 08:48:27;;;;;;;24.10;12.90;;;;;;;;;;5072988;28;20467;-80
2023/12/14 08:50:54;;;;;;;24.07;13.70;;;;;;;;;;5073691;28;20431;-81
2023/12/14 08:53:21;;;;;;;28.50;12.73;;;;;;;;;;5072935;28;20467;-82
2023/12/14 08:55:47;;;;;;;28.33;14.20;;;;;;;;;;5073533;28;20542;-80
2023/12/14 08:58:15;;;;;;;21.70;12.60;;;;;;;;;;5073115;28;20558;-82
2023/12/14 09:00:41;;;;;;;25.40;13.77;;;;;;;;;;5073259;28;20941;-81
2023/12/14 09:03:09;;;;;;;25.40;13.70;;;;;;;;;;5073000;28;20477;-81
2023/12/14 09:05:36;;;;;;;23.37;13.83;;;;;;;;;;5071202;28;21022;-81
2023/12/14 09:08:03;;;;;;;22.27;13.90;;;;;;;;;;5072719;28;20512;-81
2023/12/14 09:10:30;;;;;;;23.20;12.80;;;;;;;;;;5073408;28;20529;-81
2023/12/14 09:12:57;;;;;;;19.40;12.30;;;;;;;;;;5072769;28;20466;-82
2023/12/14 09:15:25;;;;;;;23.10;12.20;;;;;;;;;;5072278;28;20829;-80
2023/12/14 09:17:51;;;;;;;23.20;13.90;;;;;;;;;;5073073;28;20462;-81
2023/12/14 09:20:19;;;;;;;23.73;13.07;;;;;;;;;;5072930;28;20964;-82
2023/12/14 09:22:46;;;;;;;22.23;12.80;;;;;;;;;;5072790;28;20520;-82
2023/12/14 09:25:12;;;;;;;25.00;13.77;;;;;;;;;;5071644;28;20483;-81
2023/12/14 09:27:39;;;;;;;22.47;13.00;;;;;;;;;;5076766;28;20473;-81
2023/12/14 09:30:06;;;;;;;21.17;11.37;;;;;;;;;;5077056;28;20929;-80
2023/12/14 09:32:34;;;;;;;24.87;12.70;;;;;;;;;;5076883;28;20473;-82
2023/12/14 09:35:00;;;;;;;27.10;13.47;;;;;;;;;;5077094;28;20559;-81
2023/12/14 09:37:27;;;;;;;23.47;13.30;;;;;;;;;;5076739;28;20467;-81
2023/12/14 09:39:53;;;;;;;19.90;11.17;;;;;;;;;;5076962;28;20939;-80
2023/12/14 09:42:21;;;;;;;17.83;11.37;;;;;;;;;;5076621;28;20473;-81
2023/12/14 09:44:48;;;;;;;26.40;12.20;;;;;;;;;;5075981;28;20498;-81
2023/12/14 09:47:14;;;;;;;23.13;11.23;;;;;;;;;;5076673;28;20464;-81
2023/12/14 09:49:44;;;;;;;16.83;10.70;;;;;;;;;;5076742;28;21002;-82
2023/12/14 09:52:10;;;;;;;25.70;11.87;;;;;;;;;;5076242;28;20549;-81
2023/12/14 09:54:37;;;;;;;17.70;11.57;;;;;;;;;;5076386;28;20463;-82
2023/12/14 09:57:03;;;;;;;19.50;11.87;;;;;;;;;;5076460;28;20458;-80
2023/12/14 09:59:31;;;;;;;15.43;9.50;;;;;;;;;;5076774;28;20449;-81
2023/12/14 10:02:09;;;;;;;18.67;10.90;;;;;;;;;;5076122;28;20823;-82
2023/12/14 10:04:36;;;;;;;16.80;10.00;;;;;;;;;;5076741;28;20490;-79
2023/12/14 10:07:06;;;;;;;24.23;10.40;;;;;;;;;;5076118;28;20473;-79
2023/12/14 10:09:33;;;;;;;18.53;10.43;;;;;;;;;;5076576;28;20416;-80
2023/12/14 10:12:03;;;;;;;18.70;11.63;;;;;;;;;;5076228;28;20463;-80
2023/12/14 10:14:29;;;;;;;21.83;10.43;;;;;;;;;;5076520;28;20818;-82
2023/12/14 10:16:59;;;;;;;16.60;10.20;;;;;;;;;;5076057;28;20620;-80
2023/12/14 10:19:26;;;;;;;18.23;9.73;;;;;;;;;;5076213;28;20438;-79
2023/12/14 10:21:54;;;;;;;19.70;11.00;;;;;;;;;;5075909;28;20439;-80
2023/12/14 10:24:22;;;;;;;15.40;10.20;;;;;;;;;;5076318;28;20604;-80
2023/12/14 10:26:49;;;;;;;19.00;9.77;;;;;;;;;;5075784;28;20481;-80
2023/12/14 10:29:15;;;;;;;15.80;9.67;;;;;;;;;;5076360;28;20431;-80
2023/12/14 10:31:43;;;;;;;16.83;10.17;;;;;;;;;;5075690;28;20434;-80
2023/12/14 10:34:12;;;;;;;15.33;9.70;;;;;;;;;;5076020;28;20542;-80
2023/12/14 10:36:38;;;;;;;17.10;10.93;;;;;;;;;;5074091;28;20848;-80
2023/12/14 10:39:06;;;;;;;44.90;13.07;;;;;;;;;;5074365;28;20530;-79
2023/12/14 10:41:34;;;;;;;17.60;10.20;;;;;;;;;;5076043;28;20446;-80
2023/12/14 10:44:01;;;;;;;16.80;9.23;;;;;;;;;;5075318;28;20915;-80
2023/12/14 10:46:28;;;;;;;15.50;10.13;;;;;;;;;;5075973;28;20483;-80
2023/12/14 10:48:54;;;;;;;15.53;9.83;;;;;;;;;;5075181;28;20481;-80
2023/12/14 10:51:22;;;;;;;17.27;9.30;;;;;;;;;;5075514;28;20821;-80
2023/12/14 10:53:51;;;;;;;15.77;10.67;;;;;;;;;;5074808;28;20498;-80
2023/12/14 10:56:18;;;;;;;18.70;9.00;;;;;;;;;;5075308;28;20447;-80
2023/12/14 10:58:51;;;;;;;16.87;10.40;;;;;;;;;;5075113;28;20470;-80
2023/12/14 11:01:19;;;;;;;14.43;8.97;;;;;;;;;;5074438;28;20446;-80
2023/12/14 11:03:46;;;;;;;16.47;11.47;;;;;;;;;;5074990;28;20548;-80
2023/12/14 11:06:21;;;;;;;24.17;10.67;;;;;;;;;;5075625;28;20478;-80
2023/12/14 11:08:47;;;;;;;21.43;11.70;;;;;;;;;;5075687;28;20474;-79
2023/12/14 11:11:20;;;;;;;24.20;11.23;;;;;;;;;;5075524;28;20435;-80
2023/12/14 11:13:47;;;;;;;19.53;10.50;;;;;;;;;;5075137;28;20494;-80
2023/12/14 11:16:17;;;;;;;14.70;9.40;;;;;;;;;;5074199;28;20439;-80
2023/12/14 11:18:43;;;;;;;21.00;11.07;;;;;;;;;;5075103;28;20473;-80
2023/12/14 11:21:11;;;;;;;17.17;9.67;;;;;;;;;;5075248;28;20447;-80
2023/12/14 11:23:38;;;;;;;17.10;9.93;;;;;;;;;;5073008;28;20467;-80
2023/12/14 11:26:04;;;;;;;754.53;62.03;;;;;;;;;;5075342;28;20482;-80
2023/12/14 11:28:31;;;;;;;16.20;9.83;;;;;;;;;;5074513;28;20467;-80
2023/12/14 11:30:58;;;;;;;13.40;8.90;;;;;;;;;;5074773;28;20948;-80
2023/12/14 11:33:28;;;;;;;15.77;9.80;;;;;;;;;;5074596;28;20471;-79
2023/12/14 11:35:55;;;;;;;15.33;10.30;;;;;;;;;;5074601;28;20455;-80
2023/12/14 11:38:23;;;;;;;19.73;10.43;;;;;;;;;;5074307;28;20467;-80
2023/12/14 11:40:50;;;;;;;19.47;10.33;;;;;;;;;;5074830;28;20470;-80
2023/12/14 11:43:16;;;;;;;22.50;12.00;;;;;;;;;;5073096;28;20462;-80
2023/12/14 11:45:43;;;;;;;15.33;9.67;;;;;;;;;;5074391;28;20856;-79
2023/12/14 11:48:10;;;;;;;15.03;9.50;;;;;;;;;;5074365;28;20463;-79
2023/12/14 11:50:39;;;;;;;17.00;10.40;;;;;;;;;;5074654;28;20467;-80
2023/12/14 11:53:05;;;;;;;14.23;9.93;;;;;;;;;;5074017;28;20463;-80
2023/12/14 11:55:33;;;;;;;16.53;10.10;;;;;;;;;;5074427;28;20459;-80
2023/12/14 11:57:59;;;;;;;14.70;9.30;;;;;;;;;;5074079;28;20477;-79
2023/12/14 12:00:26;;;;;;;16.43;8.77;;;;;;;;;;5074750;28;20450;-80
2023/12/14 12:02:53;;;;;;;16.20;10.10;;;;;;;;;;5073888;28;20517;-80
2023/12/14 12:05:19;;;;;;;14.50;8.80;;;;;;;;;;5074336;28;20463;-80
2023/12/14 12:07:47;;;;;;;17.03;9.87;;;;;;;;;;5073558;28;20469;-80
2023/12/14 12:10:14;;;;;;;18.27;9.17;;;;;;;;;;5074364;28;20439;-80
2023/12/14 12:12:41;;;;;;;14.90;9.87;;;;;;;;;;5074129;28;20546;-79
2023/12/14 12:15:08;;;;;;;15.93;10.57;;;;;;;;;;5074302;28;20459;-80
2023/12/14 12:17:37;;;;;;;17.60;9.53;;;;;;;;;;5073907;28;20649;-80
2023/12/14 12:20:07;;;;;;;14.20;9.23;;;;;;;;;;5074185;28;20965;-80
2023/12/14 12:22:33;;;;;;;12.27;8.87;;;;;;;;;;5073112;28;20984;-80
2023/12/14 12:25:03;;;;;;;13.50;9.80;;;;;;;;;;5073913;28;20551;-80
2023/12/14 12:27:30;;;;;;;18.20;9.57;;;;;;;;;;5073243;28;20471;-80
2023/12/14 12:29:56;;;;;;;12.23;7.70;;;;;;;;;;5074217;28;20438;-80
2023/12/14 12:32:25;;;;;;;16.87;8.90;;;;;;;;;;5073253;28;20555;-80
2023/12/14 12:34:52;;;;;;;13.73;8.27;;;;;;;;;;5073571;28;20459;-80
2023/12/14 12:37:22;;;;;;;15.77;8.43;;;;;;;;;;5073369;28;20467;-81
2023/12/14 12:39:49;;;;;;;14.13;8.77;;;;;;;;;;5073858;28;20415;-80
2023/12/14 12:42:16;;;;;;;12.17;9.00;;;;;;;;;;5073443;28;20820;-80
2023/12/14 12:44:44;;;;;;;17.70;9.10;;;;;;;;;;5073309;28;20517;-80
2023/12/14 12:47:10;;;;;;;13.50;9.13;;;;;;;;;;5072950;28;20473;-80
2023/12/14 12:49:36;;;;;;;15.83;8.70;;;;;;;;;;5073723;28;20437;-80
2023/12/14 12:52:04;;;;;;;16.73;8.70;;;;;;;;;;5073300;28;20541;-80
2023/12/14 12:54:32;;;;;;;11.20;7.97;;;;;;;;;;5073639;28;20455;-80
2023/12/14 12:57:01;;;;;;;14.90;9.27;;;;;;;;;;5073021;28;20470;-80
2023/12/14 12:59:29;;;;;;;12.30;8.40;;;;;;;;;;5073841;28;20435;-80
2023/12/14 13:01:57;;;;;;;14.20;7.50;;;;;;;;;;5072559;28;20526;-80
2023/12/14 13:04:26;;;;;;;15.63;8.73;;;;;;;;;;5073580;28;20455;-80
2023/12/14 13:06:53;;;;;;;14.43;7.50;;;;;;;;;;5072863;28;20471;-80
2023/12/14 13:09:20;;;;;;;12.57;7.93;;;;;;;;;;5073676;28;20443;-80
2023/12/14 13:11:47;;;;;;;16.93;10.73;;;;;;;;;;5072896;28;20438;-81
2023/12/14 13:14:14;;;;;;;14.57;8.47;;;;;;;;;;5073437;28;20455;-81
2023/12/14 13:16:42;;;;;;;13.27;8.00;;;;;;;;;;5072973;28;20441;-80
2023/12/14 13:19:09;;;;;;;11.97;8.20;;;;;;;;;;5073146;28;20439;-80
2023/12/14 13:21:36;;;;;;;12.50;8.73;;;;;;;;;;5073036;28;20948;-80
2023/12/14 13:24:04;;;;;;;12.93;8.60;;;;;;;;;;5072601;28;20455;-80
2023/12/14 13:26:30;;;;;;;22.43;9.10;;;;;;;;;;5073169;28;20568;-80
2023/12/14 13:28:57;;;;;;;15.83;8.77;;;;;;;;;;5072554;28;20470;-81
2023/12/14 13:31:24;;;;;;;12.40;8.30;;;;;;;;;;5073402;28;20446;-80
2023/12/14 13:33:53;;;;;;;10.67;7.77;;;;;;;;;;5073022;28;20898;-80
2023/12/14 13:36:19;;;;;;;14.57;9.10;;;;;;;;;;5073257;28;20436;-80
2023/12/14 13:38:47;;;;;;;13.00;8.20;;;;;;;;;;5072516;28;20471;-80
2023/12/14 13:41:13;;;;;;;13.73;9.90;;;;;;;;;;5072788;28;20465;-80
2023/12/14 13:43:39;;;;;;;10.93;8.50;;;;;;;;;;5072376;28;20477;-80
2023/12/14 13:46:07;;;;;;;10.70;7.40;;;;;;;;;;5072806;28;20814;-80
2023/12/14 13:48:34;;;;;;;13.47;8.00;;;;;;;;;;5072539;28;20473;-80
2023/12/14 13:51:02;;;;;;;12.93;8.27;;;;;;;;;;5073112;28;20446;-80
2023/12/14 13:53:28;;;;;;;18.23;8.27;;;;;;;;;;5072265;28;20467;-80
2023/12/14 13:55:55;;;;;;;12.53;8.80;;;;;;;;;;5072959;28;20456;-80
2023/12/14 13:58:22;;;;;;;10.23;7.90;;;;;;;;;;5072489;28;21010;-81
2023/12/14 14:00:48;;;;;;;12.43;8.47;;;;;;;;;;5073094;28;20435;-80
2023/12/14 14:03:17;;;;;;;13.93;9.20;;;;;;;;;;5071290;28;20561;-80
2023/12/14 14:05:44;;;;;;;14.00;8.23;;;;;;;;;;5072498;28;20467;-80
2023/12/14 14:08:12;;;;;;;12.10;7.60;;;;;;;;;;5072573;28;20469;-80
2023/12/14 14:10:40;;;;;;;13.10;8.10;;;;;;;;;;5071595;28;20473;-80
2023/12/14 14:13:08;;;;;;;18.90;7.90;;;;;;;;;;5073195;28;20474;-81
2023/12/14 14:15:35;;;;;;;13.13;8.10;;;;;;;;;;5074827;28;20988;-79
2023/12/14 14:18:03;;;;;;;15.33;9.60;;;;;;;;;;5075910;28;20474;-81
2023/12/14 14:20:30;;;;;;;18.03;10.50;;;;;;;;;;5075896;28;20526;-80
2023/12/14 14:22:59;;;;;;;18.17;11.60;;;;;;;;;;5076281;28;20561;-81
2023/12/14 14:25:26;;;;;;;23.57;12.47;;;;;;;;;;5076381;28;20455;-81
2023/12/14 14:27:53;;;;;;;25.17;12.70;;;;;;;;;;5076036;28;20478;-81